sensor_id;sensor_type;location;lat;lon;timestamp;temperature;humidity
17918;DHT22;9084;50.956;3.106;2023-01-19T00:02:22;2.60;99.90
17918;DHT22;9084;50.956;3.106;2023-01-19T00:04:48;2.60;99.90
17918;DHT22;9084;50.956;3.106;2023-01-19T00:07:15;2.60;99.90
17918;DHT22;9084;50.956;3.106;2023-01-19T00:09:41;2.60;99.90
17918;DHT22;9084;50.956;3.106;2023-01-19T00:12:07;2.80;99.90
17918;DHT22;9084;50.956;3.106;2023-01-19T00:14:33;2.70;99.90
17918;DHT22;9084;50.956;3.106;2023-01-19T00:16:59;2.80;99.90
17918;DHT22;9084;50.956;3.106;2023-01-19T00:19:26;2.80;99.90
17918;DHT22;9084;50.956;3.106;2023-01-19T00:21:52;2.80;99.90
17918;DHT22;9084;50.956;3.106;2023-01-19T00:24:20;2.80;99.90
17918;DHT22;9084;50.956;3.106;2023-01-19T00:26:46;2.90;99.90
17918;DHT22;9084;50.956;3.106;2023-01-19T00:29:14;2.80;99.90
17918;DHT22;9084;50.956;3.106;2023-01-19T00:31:40;2.90;99.90
17918;DHT22;9084;50.956;3.106;2023-01-19T00:34:06;2.80;99.90
17918;DHT22;9084;50.956;3.106;2023-01-19T00:36:37;2.70;99.90
17918;DHT22;9084;50.956;3.106;2023-01-19T00:39:02;2.70;99.90
17918;DHT22;9084;50.956;3.106;2023-01-19T00:41:30;2.80;99.90
17918;DHT22;9084;50.956;3.106;2023-01-19T00:44:14;2.80;99.90
17918;DHT22;9084;50.956;3.106;2023-01-19T00:46:42;2.80;99.90
17918;DHT22;9084;50.956;3.106;2023-01-19T00:49:10;2.90;99.90
17918;DHT22;9084;50.956;3.106;2023-01-19T00:51:42;2.80;99.90
17918;DHT22;9084;50.956;3.106;2023-01-19T00:54:07;2.80;99.90
17918;DHT22;9084;50.956;3.106;2023-01-19T00:56:36;2.70;99.90
17918;DHT22;9084;50.956;3.106;2023-01-19T00:59:03;2.60;99.90
17918;DHT22;9084;50.956;3.106;2023-01-19T01:01:31;2.60;99.90
17918;DHT22;9084;50.956;3.106;2023-01-19T01:03:57;2.60;99.90
17918;DHT22;9084;50.956;3.106;2023-01-19T01:06:23;2.60;99.90
17918;DHT22;9084;50.956;3.106;2023-01-19T01:08:50;2.60;99.90
17918;DHT22;9084;50.956;3.106;2023-01-19T01:11:17;2.70;99.90
17918;DHT22;9084;50.956;3.106;2023-01-19T01:13:43;2.70;99.90
17918;DHT22;9084;50.956;3.106;2023-01-19T01:16:08;2.70;99.90
17918;DHT22;9084;50.956;3.106;2023-01-19T01:18:34;2.80;99.90
17918;DHT22;9084;50.956;3.106;2023-01-19T01:21:01;2.80;99.90
17918;DHT22;9084;50.956;3.106;2023-01-19T01:23:29;2.80;99.90
17918;DHT22;9084;50.956;3.106;2023-01-19T01:25:58;2.90;99.90
17918;DHT22;9084;50.956;3.106;2023-01-19T01:28:24;2.90;99.90
17918;DHT22;9084;50.956;3.106;2023-01-19T01:30:55;3.00;99.90
17918;DHT22;9084;50.956;3.106;2023-01-19T01:33:24;2.90;99.90
17918;DHT22;9084;50.956;3.106;2023-01-19T01:35:50;3.00;99.90
17918;DHT22;9084;50.956;3.106;2023-01-19T01:38:16;3.00;99.90
17918;DHT22;9084;50.956;3.106;2023-01-19T01:40:42;3.00;99.90
17918;DHT22;9084;50.956;3.106;2023-01-19T01:43:12;3.00;99.90
17918;DHT22;9084;50.956;3.106;2023-01-19T01:45:42;3.00;99.90
17918;DHT22;9084;50.956;3.106;2023-01-19T01:48:27;3.00;99.90
17918;DHT22;9084;50.956;3.106;2023-01-19T01:50:59;3.00;99.90
17918;DHT22;9084;50.956;3.106;2023-01-19T01:53:47;3.10;99.90
17918;DHT22;9084;50.956;3.106;2023-01-19T01:56:16;3.10;99.90
17918;DHT22;9084;50.956;3.106;2023-01-19T01:58:45;3.00;99.90
17918;DHT22;9084;50.956;3.106;2023-01-19T02:01:11;3.10;99.90
17918;DHT22;9084;50.956;3.106;2023-01-19T02:03:56;3.00;99.90
17918;DHT22;9084;50.956;3.106;2023-01-19T02:06:22;3.00;99.90
17918;DHT22;9084;50.956;3.106;2023-01-19T02:09:02;3.00;99.90
17918;DHT22;9084;50.956;3.106;2023-01-19T02:11:47;3.50;99.90
17918;DHT22;9084;50.956;3.106;2023-01-19T02:14:34;3.00;99.90
17918;DHT22;9084;50.956;3.106;2023-01-19T02:17:02;3.10;99.90
17918;DHT22;9084;50.956;3.106;2023-01-19T02:19:36;3.10;99.90
17918;DHT22;9084;50.956;3.106;2023-01-19T02:22:25;3.20;99.90
17918;DHT22;9084;50.956;3.106;2023-01-19T02:24:50;3.20;99.90
17918;DHT22;9084;50.956;3.106;2023-01-19T02:27:22;3.20;99.90
17918;DHT22;9084;50.956;3.106;2023-01-19T02:29:48;3.20;99.90
17918;DHT22;9084;50.956;3.106;2023-01-19T02:32:17;3.20;99.90
17918;DHT22;9084;50.956;3.106;2023-01-19T02:34:49;3.20;99.90
17918;DHT22;9084;50.956;3.106;2023-01-19T02:37:16;3.20;99.90
17918;DHT22;9084;50.956;3.106;2023-01-19T02:39:47;3.30;99.90
17918;DHT22;9084;50.956;3.106;2023-01-19T02:42:28;3.20;99.90
17918;DHT22;9084;50.956;3.106;2023-01-19T02:44:56;3.10;99.90
17918;DHT22;9084;50.956;3.106;2023-01-19T02:47:23;3.10;99.90
17918;DHT22;9084;50.956;3.106;2023-01-19T02:49:55;3.10;99.90
17918;DHT22;9084;50.956;3.106;2023-01-19T02:52:21;3.00;99.90
17918;DHT22;9084;50.956;3.106;2023-01-19T02:55:16;3.00;99.90
17918;DHT22;9084;50.956;3.106;2023-01-19T03:03:32;2.90;99.90
17918;DHT22;9084;50.956;3.106;2023-01-19T03:06:42;2.80;99.90
17918;DHT22;9084;50.956;3.106;2023-01-19T03:12:34;2.70;99.90
17918;DHT22;9084;50.956;3.106;2023-01-19T03:17:42;2.50;99.90
17918;DHT22;9084;50.956;3.106;2023-01-19T03:20:10;2.50;99.90
17918;DHT22;9084;50.956;3.106;2023-01-19T03:22:38;2.50;99.90
17918;DHT22;9084;50.956;3.106;2023-01-19T03:25:05;2.50;99.90
17918;DHT22;9084;50.956;3.106;2023-01-19T03:27:37;2.60;99.90
17918;DHT22;9084;50.956;3.106;2023-01-19T03:30:11;2.60;99.90
17918;DHT22;9084;50.956;3.106;2023-01-19T03:32:49;2.70;99.90
17918;DHT22;9084;50.956;3.106;2023-01-19T03:35:18;2.70;99.90
17918;DHT22;9084;50.956;3.106;2023-01-19T03:37:47;2.70;99.90
17918;DHT22;9084;50.956;3.106;2023-01-19T03:40:15;2.70;99.90
17918;DHT22;9084;50.956;3.106;2023-01-19T03:42:41;2.70;99.90
17918;DHT22;9084;50.956;3.106;2023-01-19T03:45:11;2.80;99.90
17918;DHT22;9084;50.956;3.106;2023-01-19T03:47:40;2.80;99.90
17918;DHT22;9084;50.956;3.106;2023-01-19T03:50:12;2.60;99.90
17918;DHT22;9084;50.956;3.106;2023-01-19T03:52:40;2.50;99.90
17918;DHT22;9084;50.956;3.106;2023-01-19T03:55:06;2.60;99.90
17918;DHT22;9084;50.956;3.106;2023-01-19T03:57:32;2.40;99.90
17918;DHT22;9084;50.956;3.106;2023-01-19T03:59:58;2.30;99.90
17918;DHT22;9084;50.956;3.106;2023-01-19T04:02:24;2.30;99.90
17918;DHT22;9084;50.956;3.106;2023-01-19T04:04:50;2.30;99.90
17918;DHT22;9084;50.956;3.106;2023-01-19T04:07:16;2.40;99.90
17918;DHT22;9084;50.956;3.106;2023-01-19T04:09:42;2.40;99.90
17918;DHT22;9084;50.956;3.106;2023-01-19T04:12:08;2.40;99.90
17918;DHT22;9084;50.956;3.106;2023-01-19T04:14:34;2.30;99.90
17918;DHT22;9084;50.956;3.106;2023-01-19T04:17:03;2.30;99.90
17918;DHT22;9084;50.956;3.106;2023-01-19T04:19:33;2.30;99.90
17918;DHT22;9084;50.956;3.106;2023-01-19T04:21:59;2.40;99.90
17918;DHT22;9084;50.956;3.106;2023-01-19T04:24:26;2.40;99.90
17918;DHT22;9084;50.956;3.106;2023-01-19T04:26:55;2.40;99.90
17918;DHT22;9084;50.956;3.106;2023-01-19T04:29:21;2.40;99.90
17918;DHT22;9084;50.956;3.106;2023-01-19T04:31:48;2.40;99.90
17918;DHT22;9084;50.956;3.106;2023-01-19T04:34:14;2.40;99.90
17918;DHT22;9084;50.956;3.106;2023-01-19T04:36:42;2.40;99.90
17918;DHT22;9084;50.956;3.106;2023-01-19T04:39:11;2.50;99.90
17918;DHT22;9084;50.956;3.106;2023-01-19T04:41:36;2.40;99.90
17918;DHT22;9084;50.956;3.106;2023-01-19T04:44:03;2.30;99.90
17918;DHT22;9084;50.956;3.106;2023-01-19T04:46:28;2.30;99.90
17918;DHT22;9084;50.956;3.106;2023-01-19T04:48:54;2.30;99.90
17918;DHT22;9084;50.956;3.106;2023-01-19T04:51:20;2.40;99.90
17918;DHT22;9084;50.956;3.106;2023-01-19T04:53:46;2.40;99.90
17918;DHT22;9084;50.956;3.106;2023-01-19T04:56:12;2.40;99.90
17918;DHT22;9084;50.956;3.106;2023-01-19T04:58:38;2.50;99.90
17918;DHT22;9084;50.956;3.106;2023-01-19T05:01:08;2.50;99.90
17918;DHT22;9084;50.956;3.106;2023-01-19T05:03:34;2.50;99.90
17918;DHT22;9084;50.956;3.106;2023-01-19T05:06:00;2.60;99.90
17918;DHT22;9084;50.956;3.106;2023-01-19T05:08:26;2.60;99.90
17918;DHT22;9084;50.956;3.106;2023-01-19T05:10:52;2.70;99.90
17918;DHT22;9084;50.956;3.106;2023-01-19T05:13:18;2.70;99.90
17918;DHT22;9084;50.956;3.106;2023-01-19T05:15:47;2.60;99.90
17918;DHT22;9084;50.956;3.106;2023-01-19T05:18:12;2.60;99.90
17918;DHT22;9084;50.956;3.106;2023-01-19T05:20:39;2.60;99.90
17918;DHT22;9084;50.956;3.106;2023-01-19T05:23:07;2.50;99.90
17918;DHT22;9084;50.956;3.106;2023-01-19T05:25:33;2.50;99.90
17918;DHT22;9084;50.956;3.106;2023-01-19T05:27:59;2.50;99.90
17918;DHT22;9084;50.956;3.106;2023-01-19T05:30:25;2.40;99.90
17918;DHT22;9084;50.956;3.106;2023-01-19T05:32:51;2.30;99.90
17918;DHT22;9084;50.956;3.106;2023-01-19T05:35:16;2.30;99.90
17918;DHT22;9084;50.956;3.106;2023-01-19T05:37:47;2.20;99.90
17918;DHT22;9084;50.956;3.106;2023-01-19T05:40:13;2.20;99.90
17918;DHT22;9084;50.956;3.106;2023-01-19T05:42:41;2.20;99.90
17918;DHT22;9084;50.956;3.106;2023-01-19T05:45:10;2.20;99.90
17918;DHT22;9084;50.956;3.106;2023-01-19T05:47:36;2.20;99.90
17918;DHT22;9084;50.956;3.106;2023-01-19T05:50:03;2.20;99.90
17918;DHT22;9084;50.956;3.106;2023-01-19T05:52:30;2.20;99.90
17918;DHT22;9084;50.956;3.106;2023-01-19T05:54:57;2.30;99.90
17918;DHT22;9084;50.956;3.106;2023-01-19T05:57:23;2.20;99.90
17918;DHT22;9084;50.956;3.106;2023-01-19T05:59:51;2.20;99.90
17918;DHT22;9084;50.956;3.106;2023-01-19T06:02:19;2.20;99.90
17918;DHT22;9084;50.956;3.106;2023-01-19T06:04:45;2.30;99.90
17918;DHT22;9084;50.956;3.106;2023-01-19T06:07:14;2.30;99.90
17918;DHT22;9084;50.956;3.106;2023-01-19T06:09:42;2.30;99.90
17918;DHT22;9084;50.956;3.106;2023-01-19T06:12:08;2.30;99.90
17918;DHT22;9084;50.956;3.106;2023-01-19T06:14:34;2.30;99.90
17918;DHT22;9084;50.956;3.106;2023-01-19T06:17:02;2.50;99.90
17918;DHT22;9084;50.956;3.106;2023-01-19T06:19:32;2.40;99.90
17918;DHT22;9084;50.956;3.106;2023-01-19T06:22:01;2.40;99.90
17918;DHT22;9084;50.956;3.106;2023-01-19T06:24:27;2.40;99.90
17918;DHT22;9084;50.956;3.106;2023-01-19T06:26:53;2.50;99.90
17918;DHT22;9084;50.956;3.106;2023-01-19T06:29:19;2.50;99.90
17918;DHT22;9084;50.956;3.106;2023-01-19T06:31:46;2.50;99.90
17918;DHT22;9084;50.956;3.106;2023-01-19T06:34:12;2.50;99.90
17918;DHT22;9084;50.956;3.106;2023-01-19T06:36:38;2.50;99.90
17918;DHT22;9084;50.956;3.106;2023-01-19T06:39:04;2.50;99.90
17918;DHT22;9084;50.956;3.106;2023-01-19T06:41:32;2.40;99.90
17918;DHT22;9084;50.956;3.106;2023-01-19T06:43:58;2.30;99.90
17918;DHT22;9084;50.956;3.106;2023-01-19T06:46:24;2.30;99.90
17918;DHT22;9084;50.956;3.106;2023-01-19T06:48:53;2.20;99.90
17918;DHT22;9084;50.956;3.106;2023-01-19T06:51:20;2.10;99.90
17918;DHT22;9084;50.956;3.106;2023-01-19T06:53:46;2.10;99.90
17918;DHT22;9084;50.956;3.106;2023-01-19T06:56:11;2.00;99.90
17918;DHT22;9084;50.956;3.106;2023-01-19T06:58:38;2.00;99.90
17918;DHT22;9084;50.956;3.106;2023-01-19T07:01:06;2.00;99.90
17918;DHT22;9084;50.956;3.106;2023-01-19T07:03:35;2.00;99.90
17918;DHT22;9084;50.956;3.106;2023-01-19T07:06:03;2.00;99.90
17918;DHT22;9084;50.956;3.106;2023-01-19T07:08:34;2.00;99.90
17918;DHT22;9084;50.956;3.106;2023-01-19T07:11:05;1.90;99.90
17918;DHT22;9084;50.956;3.106;2023-01-19T07:13:32;1.90;99.90
17918;DHT22;9084;50.956;3.106;2023-01-19T07:16:02;1.90;99.90
17918;DHT22;9084;50.956;3.106;2023-01-19T07:18:28;1.90;99.90
17918;DHT22;9084;50.956;3.106;2023-01-19T07:20:59;1.90;99.90
17918;DHT22;9084;50.956;3.106;2023-01-19T07:23:24;1.80;99.90
17918;DHT22;9084;50.956;3.106;2023-01-19T07:25:50;1.80;99.90
17918;DHT22;9084;50.956;3.106;2023-01-19T07:28:17;1.80;99.90
17918;DHT22;9084;50.956;3.106;2023-01-19T07:30:47;1.70;99.90
17918;DHT22;9084;50.956;3.106;2023-01-19T07:33:15;1.70;99.90
17918;DHT22;9084;50.956;3.106;2023-01-19T07:35:48;1.90;99.90
17918;DHT22;9084;50.956;3.106;2023-01-19T07:38:17;1.80;99.90
17918;DHT22;9084;50.956;3.106;2023-01-19T07:40:46;1.80;99.90
17918;DHT22;9084;50.956;3.106;2023-01-19T07:43:13;1.80;99.90
17918;DHT22;9084;50.956;3.106;2023-01-19T07:45:39;1.90;99.90
17918;DHT22;9084;50.956;3.106;2023-01-19T07:48:08;2.00;99.90
17918;DHT22;9084;50.956;3.106;2023-01-19T07:50:33;2.10;99.90
17918;DHT22;9084;50.956;3.106;2023-01-19T07:53:07;2.20;99.90
17918;DHT22;9084;50.956;3.106;2023-01-19T07:55:34;2.20;99.90
17918;DHT22;9084;50.956;3.106;2023-01-19T07:58:02;2.40;99.90
17918;DHT22;9084;50.956;3.106;2023-01-19T08:00:32;2.30;99.90
17918;DHT22;9084;50.956;3.106;2023-01-19T08:03:04;2.40;99.90
17918;DHT22;9084;50.956;3.106;2023-01-19T08:05:32;2.40;99.90
17918;DHT22;9084;50.956;3.106;2023-01-19T08:07:58;2.60;99.90
17918;DHT22;9084;50.956;3.106;2023-01-19T08:10:26;2.40;99.90
17918;DHT22;9084;50.956;3.106;2023-01-19T08:12:56;2.40;99.90
17918;DHT22;9084;50.956;3.106;2023-01-19T08:15:23;2.40;99.90
17918;DHT22;9084;50.956;3.106;2023-01-19T08:18:00;2.50;99.90
17918;DHT22;9084;50.956;3.106;2023-01-19T08:20:30;2.40;99.90
17918;DHT22;9084;50.956;3.106;2023-01-19T08:22:56;2.40;99.90
17918;DHT22;9084;50.956;3.106;2023-01-19T08:25:37;2.40;99.90
17918;DHT22;9084;50.956;3.106;2023-01-19T08:28:07;2.40;99.90
17918;DHT22;9084;50.956;3.106;2023-01-19T08:30:36;2.50;99.90
17918;DHT22;9084;50.956;3.106;2023-01-19T08:33:02;2.40;99.90
17918;DHT22;9084;50.956;3.106;2023-01-19T08:35:32;2.40;99.90
17918;DHT22;9084;50.956;3.106;2023-01-19T08:37:58;2.50;99.90
17918;DHT22;9084;50.956;3.106;2023-01-19T08:40:30;2.50;99.90
17918;DHT22;9084;50.956;3.106;2023-01-19T08:42:59;2.50;99.90
17918;DHT22;9084;50.956;3.106;2023-01-19T08:45:29;2.60;99.90
17918;DHT22;9084;50.956;3.106;2023-01-19T08:47:57;2.60;99.90
17918;DHT22;9084;50.956;3.106;2023-01-19T08:50:28;2.70;99.90
17918;DHT22;9084;50.956;3.106;2023-01-19T08:52:58;2.90;99.90
17918;DHT22;9084;50.956;3.106;2023-01-19T08:55:26;3.00;99.90
17918;DHT22;9084;50.956;3.106;2023-01-19T08:57:53;3.10;99.90
17918;DHT22;9084;50.956;3.106;2023-01-19T09:00:20;3.20;99.90
17918;DHT22;9084;50.956;3.106;2023-01-19T09:02:46;3.30;99.90
17918;DHT22;9084;50.956;3.106;2023-01-19T09:05:13;3.30;99.90
17918;DHT22;9084;50.956;3.106;2023-01-19T09:07:39;3.40;99.90
17918;DHT22;9084;50.956;3.106;2023-01-19T09:10:08;3.40;99.90
17918;DHT22;9084;50.956;3.106;2023-01-19T09:12:34;3.40;99.90
17918;DHT22;9084;50.956;3.106;2023-01-19T09:15:01;3.30;99.90
17918;DHT22;9084;50.956;3.106;2023-01-19T09:17:26;3.30;99.90
17918;DHT22;9084;50.956;3.106;2023-01-19T09:19:52;3.30;99.90
17918;DHT22;9084;50.956;3.106;2023-01-19T09:22:20;3.30;99.90
17918;DHT22;9084;50.956;3.106;2023-01-19T09:24:46;3.30;99.90
17918;DHT22;9084;50.956;3.106;2023-01-19T09:27:11;3.30;99.90
17918;DHT22;9084;50.956;3.106;2023-01-19T09:29:42;3.30;99.90
17918;DHT22;9084;50.956;3.106;2023-01-19T09:32:20;3.30;99.90
17918;DHT22;9084;50.956;3.106;2023-01-19T09:34:49;3.40;99.90
17918;DHT22;9084;50.956;3.106;2023-01-19T09:37:15;3.30;99.90
17918;DHT22;9084;50.956;3.106;2023-01-19T09:39:43;3.30;99.90
17918;DHT22;9084;50.956;3.106;2023-01-19T09:42:18;3.30;99.90
17918;DHT22;9084;50.956;3.106;2023-01-19T09:44:49;3.30;99.90
17918;DHT22;9084;50.956;3.106;2023-01-19T09:47:22;3.30;99.90
17918;DHT22;9084;50.956;3.106;2023-01-19T09:50:04;3.20;99.90
17918;DHT22;9084;50.956;3.106;2023-01-19T09:52:33;3.30;99.90
17918;DHT22;9084;50.956;3.106;2023-01-19T09:55:01;3.20;99.90
17918;DHT22;9084;50.956;3.106;2023-01-19T09:57:35;3.30;99.90
17918;DHT22;9084;50.956;3.106;2023-01-19T10:00:00;3.30;99.90
17918;DHT22;9084;50.956;3.106;2023-01-19T10:02:52;3.30;99.90
17918;DHT22;9084;50.956;3.106;2023-01-19T10:10:44;3.30;99.90
17918;DHT22;9084;50.956;3.106;2023-01-19T10:13:16;3.30;99.90
17918;DHT22;9084;50.956;3.106;2023-01-19T10:18:24;3.40;99.90
17918;DHT22;9084;50.956;3.106;2023-01-19T10:26:07;3.40;99.90
17918;DHT22;9084;50.956;3.106;2023-01-19T10:28:35;3.40;99.90
17918;DHT22;9084;50.956;3.106;2023-01-19T10:31:06;3.40;99.90
17918;DHT22;9084;50.956;3.106;2023-01-19T10:33:34;3.40;99.90
17918;DHT22;9084;50.956;3.106;2023-01-19T10:36:17;3.40;99.90
17918;DHT22;9084;50.956;3.106;2023-01-19T10:38:43;3.50;99.90
17918;DHT22;9084;50.956;3.106;2023-01-19T10:41:19;3.50;99.90
17918;DHT22;9084;50.956;3.106;2023-01-19T10:43:47;3.60;99.90
17918;DHT22;9084;50.956;3.106;2023-01-19T10:46:28;3.60;99.90
17918;DHT22;9084;50.956;3.106;2023-01-19T10:48:55;3.80;99.90
17918;DHT22;9084;50.956;3.106;2023-01-19T10:51:21;3.80;99.90
17918;DHT22;9084;50.956;3.106;2023-01-19T10:54:01;3.90;99.90
17918;DHT22;9084;50.956;3.106;2023-01-19T10:56:33;3.90;99.90
17918;DHT22;9084;50.956;3.106;2023-01-19T10:59:03;3.90;99.90
17918;DHT22;9084;50.956;3.106;2023-01-19T11:01:29;3.90;99.90
17918;DHT22;9084;50.956;3.106;2023-01-19T11:03:55;3.90;99.90
17918;DHT22;9084;50.956;3.106;2023-01-19T11:06:30;3.90;99.90
17918;DHT22;9084;50.956;3.106;2023-01-19T11:09:31;4.00;99.90
17918;DHT22;9084;50.956;3.106;2023-01-19T11:11:57;4.00;99.90
17918;DHT22;9084;50.956;3.106;2023-01-19T11:14:26;4.10;99.90
17918;DHT22;9084;50.956;3.106;2023-01-19T11:16:55;4.10;99.90
17918;DHT22;9084;50.956;3.106;2023-01-19T11:19:30;4.10;99.90
17918;DHT22;9084;50.956;3.106;2023-01-19T11:22:16;4.10;99.90
17918;DHT22;9084;50.956;3.106;2023-01-19T11:24:46;4.10;99.90
17918;DHT22;9084;50.956;3.106;2023-01-19T11:27:16;4.20;99.90
17918;DHT22;9084;50.956;3.106;2023-01-19T11:29:49;4.20;99.90
17918;DHT22;9084;50.956;3.106;2023-01-19T11:32:20;4.20;99.90
17918;DHT22;9084;50.956;3.106;2023-01-19T11:34:48;4.30;99.90
17918;DHT22;9084;50.956;3.106;2023-01-19T11:39:49;4.30;99.90
17918;DHT22;9084;50.956;3.106;2023-01-19T11:42:16;4.40;99.90
17918;DHT22;9084;50.956;3.106;2023-01-19T11:45:00;4.40;99.90
17918;DHT22;9084;50.956;3.106;2023-01-19T11:55:46;4.40;99.90
17918;DHT22;9084;50.956;3.106;2023-01-19T11:58:18;4.40;99.90
17918;DHT22;9084;50.956;3.106;2023-01-19T12:00:55;4.40;99.90
17918;DHT22;9084;50.956;3.106;2023-01-19T12:03:42;4.50;99.90
17918;DHT22;9084;50.956;3.106;2023-01-19T12:06:16;4.50;99.90
17918;DHT22;9084;50.956;3.106;2023-01-19T12:08:46;4.50;99.90
17918;DHT22;9084;50.956;3.106;2023-01-19T12:11:20;4.50;99.90
17918;DHT22;9084;50.956;3.106;2023-01-19T12:13:48;4.50;99.90
17918;DHT22;9084;50.956;3.106;2023-01-19T12:16:22;4.50;99.90
17918;DHT22;9084;50.956;3.106;2023-01-19T12:18:55;4.50;99.90
17918;DHT22;9084;50.956;3.106;2023-01-19T12:21:23;4.50;99.90
17918;DHT22;9084;50.956;3.106;2023-01-19T12:26:27;4.60;99.90
17918;DHT22;9084;50.956;3.106;2023-01-19T12:28:59;4.60;99.90
17918;DHT22;9084;50.956;3.106;2023-01-19T12:31:26;4.60;99.90
17918;DHT22;9084;50.956;3.106;2023-01-19T12:33:51;4.60;99.90
17918;DHT22;9084;50.956;3.106;2023-01-19T12:38:56;4.70;99.90
17918;DHT22;9084;50.956;3.106;2023-01-19T12:46:54;4.60;99.90
17918;DHT22;9084;50.956;3.106;2023-01-19T12:49:28;4.70;99.90
17918;DHT22;9084;50.956;3.106;2023-01-19T13:02:57;4.80;99.90
17918;DHT22;9084;50.956;3.106;2023-01-19T13:21:10;4.70;99.90
17918;DHT22;9084;50.956;3.106;2023-01-19T13:26:21;4.70;99.90
17918;DHT22;9084;50.956;3.106;2023-01-19T13:29:12;4.60;99.90
17918;DHT22;9084;50.956;3.106;2023-01-19T13:31:40;4.60;99.90
17918;DHT22;9084;50.956;3.106;2023-01-19T13:34:15;4.50;99.90
17918;DHT22;9084;50.956;3.106;2023-01-19T13:36:44;4.50;99.90
17918;DHT22;9084;50.956;3.106;2023-01-19T13:39:21;4.60;99.90
17918;DHT22;9084;50.956;3.106;2023-01-19T13:41:48;4.60;99.90
17918;DHT22;9084;50.956;3.106;2023-01-19T13:44:24;4.60;99.90
17918;DHT22;9084;50.956;3.106;2023-01-19T13:46:52;4.60;99.90
17918;DHT22;9084;50.956;3.106;2023-01-19T13:49:41;4.60;99.90
17918;DHT22;9084;50.956;3.106;2023-01-19T13:52:21;4.70;99.90
17918;DHT22;9084;50.956;3.106;2023-01-19T13:54:57;4.70;99.90
17918;DHT22;9084;50.956;3.106;2023-01-19T13:57:30;4.70;99.90
17918;DHT22;9084;50.956;3.106;2023-01-19T14:00:19;4.70;99.90
17918;DHT22;9084;50.956;3.106;2023-01-19T14:05:32;4.70;99.90
17918;DHT22;9084;50.956;3.106;2023-01-19T14:08:03;4.70;99.90
17918;DHT22;9084;50.956;3.106;2023-01-19T14:10:29;4.70;99.90
17918;DHT22;9084;50.956;3.106;2023-01-19T14:13:02;4.70;99.90
17918;DHT22;9084;50.956;3.106;2023-01-19T14:15:31;4.70;99.90
17918;DHT22;9084;50.956;3.106;2023-01-19T14:18:08;4.80;99.90
17918;DHT22;9084;50.956;3.106;2023-01-19T14:20:35;4.80;99.90
17918;DHT22;9084;50.956;3.106;2023-01-19T14:23:05;4.80;99.90
17918;DHT22;9084;50.956;3.106;2023-01-19T14:25:34;4.80;99.90
17918;DHT22;9084;50.956;3.106;2023-01-19T14:33:47;4.70;99.90
17918;DHT22;9084;50.956;3.106;2023-01-19T14:38:48;4.70;99.90
17918;DHT22;9084;50.956;3.106;2023-01-19T14:43:48;4.60;99.90
17918;DHT22;9084;50.956;3.106;2023-01-19T14:46:17;4.70;99.90
17918;DHT22;9084;50.956;3.106;2023-01-19T14:48:55;4.70;99.90
17918;DHT22;9084;50.956;3.106;2023-01-19T14:51:23;4.70;99.90
17918;DHT22;9084;50.956;3.106;2023-01-19T14:53:54;4.70;99.90
17918;DHT22;9084;50.956;3.106;2023-01-19T14:56:28;4.60;99.90
17918;DHT22;9084;50.956;3.106;2023-01-19T14:59:00;4.60;99.90
17918;DHT22;9084;50.956;3.106;2023-01-19T15:01:27;4.50;99.90
17918;DHT22;9084;50.956;3.106;2023-01-19T15:03:54;4.50;99.90
17918;DHT22;9084;50.956;3.106;2023-01-19T15:06:24;4.40;99.90
17918;DHT22;9084;50.956;3.106;2023-01-19T15:08:50;4.40;99.90
17918;DHT22;9084;50.956;3.106;2023-01-19T15:11:22;4.40;99.90
17918;DHT22;9084;50.956;3.106;2023-01-19T15:13:49;4.40;99.90
17918;DHT22;9084;50.956;3.106;2023-01-19T15:16:16;4.40;99.90
17918;DHT22;9084;50.956;3.106;2023-01-19T15:18:42;4.50;99.90
17918;DHT22;9084;50.956;3.106;2023-01-19T15:21:13;4.40;99.90
17918;DHT22;9084;50.956;3.106;2023-01-19T15:23:40;4.40;99.90
17918;DHT22;9084;50.956;3.106;2023-01-19T15:26:09;4.30;99.90
17918;DHT22;9084;50.956;3.106;2023-01-19T15:28:40;4.30;99.90
17918;DHT22;9084;50.956;3.106;2023-01-19T15:31:05;4.30;99.90
17918;DHT22;9084;50.956;3.106;2023-01-19T15:33:34;4.30;99.90
17918;DHT22;9084;50.956;3.106;2023-01-19T15:36:00;4.20;99.90
17918;DHT22;9084;50.956;3.106;2023-01-19T15:38:26;4.20;99.90
17918;DHT22;9084;50.956;3.106;2023-01-19T15:40:56;4.20;99.90
17918;DHT22;9084;50.956;3.106;2023-01-19T15:43:22;4.20;99.90
17918;DHT22;9084;50.956;3.106;2023-01-19T15:45:53;4.20;99.90
17918;DHT22;9084;50.956;3.106;2023-01-19T15:48:24;4.10;99.90
17918;DHT22;9084;50.956;3.106;2023-01-19T15:50:52;4.10;99.90
17918;DHT22;9084;50.956;3.106;2023-01-19T15:53:21;4.10;99.90
17918;DHT22;9084;50.956;3.106;2023-01-19T15:55:50;4.10;99.90
17918;DHT22;9084;50.956;3.106;2023-01-19T15:58:16;4.10;99.90
17918;DHT22;9084;50.956;3.106;2023-01-19T16:00:54;4.10;99.90
17918;DHT22;9084;50.956;3.106;2023-01-19T16:03:23;4.10;99.90
17918;DHT22;9084;50.956;3.106;2023-01-19T16:05:50;4.10;99.90
17918;DHT22;9084;50.956;3.106;2023-01-19T16:08:16;4.00;99.90
17918;DHT22;9084;50.956;3.106;2023-01-19T16:10:41;4.00;99.90
17918;DHT22;9084;50.956;3.106;2023-01-19T16:13:10;4.00;99.90
17918;DHT22;9084;50.956;3.106;2023-01-19T16:15:38;3.90;99.90
17918;DHT22;9084;50.956;3.106;2023-01-19T16:18:04;4.00;99.90
17918;DHT22;9084;50.956;3.106;2023-01-19T16:20:30;4.00;99.90
17918;DHT22;9084;50.956;3.106;2023-01-19T16:22:56;4.00;99.90
17918;DHT22;9084;50.956;3.106;2023-01-19T16:25:22;4.00;99.90
17918;DHT22;9084;50.956;3.106;2023-01-19T16:27:50;4.00;99.90
17918;DHT22;9084;50.956;3.106;2023-01-19T16:30:16;4.00;99.90
17918;DHT22;9084;50.956;3.106;2023-01-19T16:32:45;4.00;99.90
17918;DHT22;9084;50.956;3.106;2023-01-19T16:35:12;4.00;99.90
17918;DHT22;9084;50.956;3.106;2023-01-19T16:37:42;4.00;99.90
17918;DHT22;9084;50.956;3.106;2023-01-19T16:40:08;3.90;99.90
17918;DHT22;9084;50.956;3.106;2023-01-19T16:42:34;3.90;99.90
17918;DHT22;9084;50.956;3.106;2023-01-19T16:45:01;3.90;99.90
17918;DHT22;9084;50.956;3.106;2023-01-19T16:47:27;3.80;99.90
17918;DHT22;9084;50.956;3.106;2023-01-19T16:49:53;3.80;99.90
17918;DHT22;9084;50.956;3.106;2023-01-19T16:52:21;3.80;99.90
17918;DHT22;9084;50.956;3.106;2023-01-19T16:54:47;3.80;99.90
17918;DHT22;9084;50.956;3.106;2023-01-19T16:57:13;3.80;99.90
17918;DHT22;9084;50.956;3.106;2023-01-19T16:59:39;3.80;99.90
17918;DHT22;9084;50.956;3.106;2023-01-19T17:02:06;3.70;99.90
17918;DHT22;9084;50.956;3.106;2023-01-19T17:04:31;3.70;99.90
17918;DHT22;9084;50.956;3.106;2023-01-19T17:07:00;3.60;99.90
17918;DHT22;9084;50.956;3.106;2023-01-19T17:09:26;3.50;99.90
17918;DHT22;9084;50.956;3.106;2023-01-19T17:11:54;3.40;99.90
17918;DHT22;9084;50.956;3.106;2023-01-19T17:14:27;3.40;99.90
17918;DHT22;9084;50.956;3.106;2023-01-19T17:16:53;3.30;99.90
17918;DHT22;9084;50.956;3.106;2023-01-19T17:19:19;3.20;99.90
17918;DHT22;9084;50.956;3.106;2023-01-19T17:21:47;3.20;99.90
17918;DHT22;9084;50.956;3.106;2023-01-19T17:24:16;3.10;99.90
17918;DHT22;9084;50.956;3.106;2023-01-19T17:26:42;3.00;99.90
17918;DHT22;9084;50.956;3.106;2023-01-19T17:29:10;3.00;99.90
17918;DHT22;9084;50.956;3.106;2023-01-19T17:31:38;2.90;99.90
17918;DHT22;9084;50.956;3.106;2023-01-19T17:34:05;2.90;99.90
17918;DHT22;9084;50.956;3.106;2023-01-19T17:36:32;2.80;99.90
17918;DHT22;9084;50.956;3.106;2023-01-19T17:38:59;2.80;99.90
17918;DHT22;9084;50.956;3.106;2023-01-19T17:41:31;2.70;99.90
17918;DHT22;9084;50.956;3.106;2023-01-19T17:43:59;2.70;99.90
17918;DHT22;9084;50.956;3.106;2023-01-19T17:46:27;2.80;99.90